sensor_id;sensor_type;location;lat;lon;timestamp;pressure;altitude;pressure_sealevel;temperature;humidity
55733;BME280;41637;52.364;9.910;2023-04-28T00:01:28;101008.86;;;6.46;60.19
55733;BME280;41637;52.364;9.910;2023-04-28T00:03:55;101008.25;;;6.47;60.44
55733;BME280;41637;52.364;9.910;2023-04-28T00:06:23;100999.14;;;6.46;60.75
55733;BME280;41637;52.364;9.910;2023-04-28T00:08:50;101002.42;;;6.45;60.69
55733;BME280;41637;52.364;9.910;2023-04-28T00:11:16;100999.73;;;6.44;61.19
55733;BME280;41637;52.364;9.910;2023-04-28T00:13:43;100990.02;;;6.41;61.41
55733;BME280;41637;52.364;9.910;2023-04-28T00:16:10;100988.94;;;6.39;61.71
55733;BME280;41637;52.364;9.910;2023-04-28T00:18:37;100985.70;;;6.38;61.55
55733;BME280;41637;52.364;9.910;2023-04-28T00:21:04;100984.82;;;6.38;61.55
55733;BME280;41637;52.364;9.910;2023-04-28T00:23:31;100982.73;;;6.38;61.76
55733;BME280;41637;52.364;9.910;2023-04-28T00:25:58;100978.36;;;6.39;62.02
55733;BME280;41637;52.364;9.910;2023-04-28T00:28:25;100976.54;;;6.40;62.00
55733;BME280;41637;52.364;9.910;2023-04-28T00:31:00;100976.92;;;6.40;62.11
55733;BME280;41637;52.364;9.910;2023-04-28T00:33:27;100975.88;;;6.41;62.23
55733;BME280;41637;52.364;9.910;2023-04-28T00:35:59;100969.56;;;6.43;62.26
55733;BME280;41637;52.364;9.910;2023-04-28T00:38:27;100968.55;;;6.45;62.36
55733;BME280;41637;52.364;9.910;2023-04-28T00:40:54;100964.13;;;6.45;62.46
55733;BME280;41637;52.364;9.910;2023-04-28T00:43:20;100962.15;;;6.45;62.80
55733;BME280;41637;52.364;9.910;2023-04-28T00:45:50;100961.06;;;6.46;62.84
55733;BME280;41637;52.364;9.910;2023-04-28T00:48:18;100964.69;;;6.46;62.89
55733;BME280;41637;52.364;9.910;2023-04-28T00:50:46;100962.15;;;6.47;63.12
55733;BME280;41637;52.364;9.910;2023-04-28T00:53:13;100956.41;;;6.47;63.21
55733;BME280;41637;52.364;9.910;2023-04-28T00:55:40;100954.83;;;6.46;63.36
55733;BME280;41637;52.364;9.910;2023-04-28T00:58:07;100949.23;;;6.48;63.30
55733;BME280;41637;52.364;9.910;2023-04-28T01:00:34;100943.21;;;6.49;63.42
55733;BME280;41637;52.364;9.910;2023-04-28T01:03:01;100946.64;;;6.50;63.33
55733;BME280;41637;52.364;9.910;2023-04-28T01:05:29;100946.28;;;6.50;63.47
55733;BME280;41637;52.364;9.910;2023-04-28T01:07:57;100948.02;;;6.52;63.67
55733;BME280;41637;52.364;9.910;2023-04-28T01:10:23;100942.66;;;6.55;63.45
55733;BME280;41637;52.364;9.910;2023-04-28T01:12:50;100934.86;;;6.58;63.25
55733;BME280;41637;52.364;9.910;2023-04-28T01:15:19;100932.64;;;6.59;63.53
55733;BME280;41637;52.364;9.910;2023-04-28T01:17:46;100926.79;;;6.58;64.05
55733;BME280;41637;52.364;9.910;2023-04-28T01:20:14;100926.09;;;6.57;63.90
55733;BME280;41637;52.364;9.910;2023-04-28T01:22:40;100923.27;;;6.57;64.00
55733;BME280;41637;52.364;9.910;2023-04-28T01:25:07;100919.85;;;6.58;64.08
55733;BME280;41637;52.364;9.910;2023-04-28T01:27:34;100919.07;;;6.59;63.92
55733;BME280;41637;52.364;9.910;2023-04-28T01:30:01;100915.92;;;6.61;63.70
55733;BME280;41637;52.364;9.910;2023-04-28T01:32:28;100921.09;;;6.62;63.72
55733;BME280;41637;52.364;9.910;2023-04-28T01:34:55;100923.71;;;6.64;63.38
55733;BME280;41637;52.364;9.910;2023-04-28T01:37:21;100919.95;;;6.65;63.39
55733;BME280;41637;52.364;9.910;2023-04-28T01:39:49;100917.76;;;6.66;63.34
55733;BME280;41637;52.364;9.910;2023-04-28T01:42:16;100916.11;;;6.66;63.64
55733;BME280;41637;52.364;9.910;2023-04-28T01:44:42;100913.89;;;6.66;63.67
55733;BME280;41637;52.364;9.910;2023-04-28T01:47:09;100906.38;;;6.65;63.52
55733;BME280;41637;52.364;9.910;2023-04-28T01:49:35;100902.91;;;6.65;63.78
55733;BME280;41637;52.364;9.910;2023-04-28T01:52:02;100900.05;;;6.64;63.88
55733;BME280;41637;52.364;9.910;2023-04-28T01:54:29;100898.11;;;6.62;64.05
55733;BME280;41637;52.364;9.910;2023-04-28T01:56:56;100894.77;;;6.60;63.99
55733;BME280;41637;52.364;9.910;2023-04-28T01:59:23;100889.59;;;6.61;64.36
55733;BME280;41637;52.364;9.910;2023-04-28T02:01:49;100887.73;;;6.62;63.89
55733;BME280;41637;52.364;9.910;2023-04-28T02:04:16;100891.03;;;6.62;63.95
55733;BME280;41637;52.364;9.910;2023-04-28T02:06:43;100887.88;;;6.62;64.02
55733;BME280;41637;52.364;9.910;2023-04-28T02:09:10;100884.27;;;6.61;64.09
55733;BME280;41637;52.364;9.910;2023-04-28T02:11:37;100878.72;;;6.60;64.48
55733;BME280;41637;52.364;9.910;2023-04-28T02:14:03;100875.61;;;6.60;64.08
55733;BME280;41637;52.364;9.910;2023-04-28T02:16:30;100874.20;;;6.58;64.04
55733;BME280;41637;52.364;9.910;2023-04-28T02:18:57;100871.85;;;6.57;64.40
55733;BME280;41637;52.364;9.910;2023-04-28T02:21:23;100869.27;;;6.56;64.27
55733;BME280;41637;52.364;9.910;2023-04-28T02:23:51;100869.84;;;6.54;64.57
55733;BME280;41637;52.364;9.910;2023-04-28T02:26:18;100869.82;;;6.54;64.50
55733;BME280;41637;52.364;9.910;2023-04-28T02:28:45;100871.41;;;6.56;64.58
55733;BME280;41637;52.364;9.910;2023-04-28T02:31:12;100869.91;;;6.57;64.44
55733;BME280;41637;52.364;9.910;2023-04-28T02:33:39;100864.94;;;6.54;64.32
55733;BME280;41637;52.364;9.910;2023-04-28T02:36:08;100862.28;;;6.50;64.20
55733;BME280;41637;52.364;9.910;2023-04-28T02:38:35;100854.44;;;6.47;64.34
55733;BME280;41637;52.364;9.910;2023-04-28T02:41:04;100851.86;;;6.45;64.55
55733;BME280;41637;52.364;9.910;2023-04-28T02:43:31;100850.50;;;6.43;64.58
55733;BME280;41637;52.364;9.910;2023-04-28T02:45:58;100844.50;;;6.41;64.67
55733;BME280;41637;52.364;9.910;2023-04-28T02:48:25;100842.67;;;6.38;64.56
55733;BME280;41637;52.364;9.910;2023-04-28T02:50:52;100836.17;;;6.36;64.55
55733;BME280;41637;52.364;9.910;2023-04-28T02:53:19;100834.29;;;6.36;64.74
55733;BME280;41637;52.364;9.910;2023-04-28T02:55:46;100825.88;;;6.36;64.90
55733;BME280;41637;52.364;9.910;2023-04-28T02:58:13;100823.17;;;6.35;65.08
55733;BME280;41637;52.364;9.910;2023-04-28T03:00:40;100821.52;;;6.33;64.72
55733;BME280;41637;52.364;9.910;2023-04-28T03:03:06;100824.34;;;6.33;64.79
55733;BME280;41637;52.364;9.910;2023-04-28T03:05:33;100822.79;;;6.33;64.75
55733;BME280;41637;52.364;9.910;2023-04-28T03:08:00;100820.63;;;6.33;64.87
55733;BME280;41637;52.364;9.910;2023-04-28T03:10:26;100812.85;;;6.34;64.81
55733;BME280;41637;52.364;9.910;2023-04-28T03:12:53;100808.55;;;6.33;64.68
55733;BME280;41637;52.364;9.910;2023-04-28T03:15:20;100811.10;;;6.32;64.78
55733;BME280;41637;52.364;9.910;2023-04-28T03:17:46;100805.98;;;6.30;64.76
55733;BME280;41637;52.364;9.910;2023-04-28T03:20:13;100804.05;;;6.30;64.80
55733;BME280;41637;52.364;9.910;2023-04-28T03:22:40;100804.11;;;6.30;64.82
55733;BME280;41637;52.364;9.910;2023-04-28T03:25:07;100801.02;;;6.29;64.68
55733;BME280;41637;52.364;9.910;2023-04-28T03:27:34;100798.77;;;6.30;64.66
55733;BME280;41637;52.364;9.910;2023-04-28T03:30:00;100794.95;;;6.32;64.66
55733;BME280;41637;52.364;9.910;2023-04-28T03:32:27;100789.59;;;6.33;64.67
55733;BME280;41637;52.364;9.910;2023-04-28T03:34:54;100783.69;;;6.32;64.66
55733;BME280;41637;52.364;9.910;2023-04-28T03:37:20;100785.08;;;6.32;64.63
55733;BME280;41637;52.364;9.910;2023-04-28T03:39:48;100784.96;;;6.32;64.47
55733;BME280;41637;52.364;9.910;2023-04-28T03:42:14;100784.58;;;6.30;64.74
55733;BME280;41637;52.364;9.910;2023-04-28T03:44:41;100782.03;;;6.29;64.70
55733;BME280;41637;52.364;9.910;2023-04-28T03:47:09;100776.65;;;6.30;64.76
55733;BME280;41637;52.364;9.910;2023-04-28T03:49:35;100767.63;;;6.31;64.61
55733;BME280;41637;52.364;9.910;2023-04-28T03:52:02;100769.92;;;6.31;64.66
55733;BME280;41637;52.364;9.910;2023-04-28T03:54:29;100767.66;;;6.31;64.59
55733;BME280;41637;52.364;9.910;2023-04-28T03:56:56;100764.05;;;6.32;64.21
55733;BME280;41637;52.364;9.910;2023-04-28T03:59:23;100769.21;;;6.33;64.10
55733;BME280;41637;52.364;9.910;2023-04-28T04:01:50;100756.11;;;6.34;64.25
55733;BME280;41637;52.364;9.910;2023-04-28T04:04:16;100755.91;;;6.34;64.04
55733;BME280;41637;52.364;9.910;2023-04-28T04:06:44;100746.43;;;6.34;64.21
55733;BME280;41637;52.364;9.910;2023-04-28T04:09:10;100745.11;;;6.33;64.24
55733;BME280;41637;52.364;9.910;2023-04-28T04:11:37;100746.30;;;6.32;64.44
55733;BME280;41637;52.364;9.910;2023-04-28T04:14:03;100748.95;;;6.32;64.33
55733;BME280;41637;52.364;9.910;2023-04-28T04:16:31;100746.25;;;6.32;64.65
55733;BME280;41637;52.364;9.910;2023-04-28T04:18:58;100744.96;;;6.33;65.09
55733;BME280;41637;52.364;9.910;2023-04-28T04:21:24;100747.35;;;6.34;64.85
55733;BME280;41637;52.364;9.910;2023-04-28T04:23:51;100747.48;;;6.36;65.07
55733;BME280;41637;52.364;9.910;2023-04-28T04:26:17;100744.38;;;6.39;64.74
55733;BME280;41637;52.364;9.910;2023-04-28T04:28:44;100736.38;;;6.42;64.79
55733;BME280;41637;52.364;9.910;2023-04-28T04:31:11;100733.66;;;6.43;64.81
55733;BME280;41637;52.364;9.910;2023-04-28T04:33:38;100732.77;;;6.43;64.99
55733;BME280;41637;52.364;9.910;2023-04-28T04:36:05;100731.08;;;6.44;64.85
55733;BME280;41637;52.364;9.910;2023-04-28T04:38:31;100733.04;;;6.49;64.81
55733;BME280;41637;52.364;9.910;2023-04-28T04:40:58;100734.05;;;6.55;64.95
55733;BME280;41637;52.364;9.910;2023-04-28T04:43:25;100732.94;;;6.61;64.93
55733;BME280;41637;52.364;9.910;2023-04-28T04:45:52;100728.60;;;6.68;64.94
55733;BME280;41637;52.364;9.910;2023-04-28T04:48:19;100727.89;;;6.76;64.90
55733;BME280;41637;52.364;9.910;2023-04-28T04:50:46;100724.58;;;6.84;64.88
55733;BME280;41637;52.364;9.910;2023-04-28T04:53:12;100728.60;;;6.91;64.77
55733;BME280;41637;52.364;9.910;2023-04-28T04:55:41;100727.83;;;7.00;64.61
55733;BME280;41637;52.364;9.910;2023-04-28T04:58:08;100725.89;;;7.07;64.68
55733;BME280;41637;52.364;9.910;2023-04-28T05:00:35;100726.56;;;7.13;64.76
55733;BME280;41637;52.364;9.910;2023-04-28T05:03:03;100729.67;;;7.19;65.00
55733;BME280;41637;52.364;9.910;2023-04-28T05:05:31;100729.19;;;7.23;64.72
55733;BME280;41637;52.364;9.910;2023-04-28T05:07:58;100723.17;;;7.29;64.51
55733;BME280;41637;52.364;9.910;2023-04-28T05:10:25;100722.77;;;7.37;64.69
55733;BME280;41637;52.364;9.910;2023-04-28T05:12:52;100720.76;;;7.43;64.67
55733;BME280;41637;52.364;9.910;2023-04-28T05:15:19;100723.17;;;7.48;64.62
55733;BME280;41637;52.364;9.910;2023-04-28T05:17:46;100722.45;;;7.54;64.35
55733;BME280;41637;52.364;9.910;2023-04-28T05:20:13;100722.88;;;7.58;64.08
55733;BME280;41637;52.364;9.910;2023-04-28T05:22:40;100718.17;;;7.65;63.96
55733;BME280;41637;52.364;9.910;2023-04-28T05:25:07;100715.30;;;7.70;63.90
55733;BME280;41637;52.364;9.910;2023-04-28T05:27:34;100709.75;;;7.75;63.90
55733;BME280;41637;52.364;9.910;2023-04-28T05:30:03;100704.70;;;7.85;64.60
55733;BME280;41637;52.364;9.910;2023-04-28T05:32:30;100702.22;;;7.92;64.16
55733;BME280;41637;52.364;9.910;2023-04-28T05:34:57;100702.33;;;7.99;64.04
55733;BME280;41637;52.364;9.910;2023-04-28T05:37:23;100699.84;;;8.06;63.84
55733;BME280;41637;52.364;9.910;2023-04-28T05:39:50;100696.38;;;8.14;63.33
55733;BME280;41637;52.364;9.910;2023-04-28T05:42:17;100698.20;;;8.23;63.09
55733;BME280;41637;52.364;9.910;2023-04-28T05:44:44;100698.29;;;8.28;62.97
55733;BME280;41637;52.364;9.910;2023-04-28T05:47:10;100696.06;;;8.34;62.58
55733;BME280;41637;52.364;9.910;2023-04-28T05:49:37;100693.50;;;8.40;62.58
55733;BME280;41637;52.364;9.910;2023-04-28T05:52:04;100696.66;;;8.47;62.64
55733;BME280;41637;52.364;9.910;2023-04-28T05:54:31;100692.05;;;8.54;62.18
55733;BME280;41637;52.364;9.910;2023-04-28T05:56:59;100687.13;;;8.63;62.07
55733;BME280;41637;52.364;9.910;2023-04-28T05:59:27;100682.33;;;8.70;61.94
55733;BME280;41637;52.364;9.910;2023-04-28T06:01:55;100678.57;;;8.77;61.81
55733;BME280;41637;52.364;9.910;2023-04-28T06:04:22;100680.89;;;8.87;61.63
55733;BME280;41637;52.364;9.910;2023-04-28T06:06:51;100680.27;;;8.95;61.73
55733;BME280;41637;52.364;9.910;2023-04-28T06:09:18;100681.86;;;9.06;61.34
55733;BME280;41637;52.364;9.910;2023-04-28T06:11:45;100675.91;;;9.15;61.04
55733;BME280;41637;52.364;9.910;2023-04-28T06:14:12;100673.19;;;9.24;60.57
55733;BME280;41637;52.364;9.910;2023-04-28T06:16:38;100669.30;;;9.33;60.41
55733;BME280;41637;52.364;9.910;2023-04-28T06:19:05;100668.63;;;9.43;60.11
55733;BME280;41637;52.364;9.910;2023-04-28T06:21:32;100667.39;;;9.55;60.03
55733;BME280;41637;52.364;9.910;2023-04-28T06:23:59;100668.88;;;9.66;59.87
55733;BME280;41637;52.364;9.910;2023-04-28T06:26:27;100665.40;;;9.77;59.32
55733;BME280;41637;52.364;9.910;2023-04-28T06:28:54;100670.45;;;9.86;58.96
55733;BME280;41637;52.364;9.910;2023-04-28T06:31:21;100667.10;;;9.97;58.91
55733;BME280;41637;52.364;9.910;2023-04-28T06:33:48;100666.09;;;10.07;58.04
55733;BME280;41637;52.364;9.910;2023-04-28T06:36:14;100667.19;;;10.15;57.92
55733;BME280;41637;52.364;9.910;2023-04-28T06:38:43;100665.13;;;10.22;57.88
55733;BME280;41637;52.364;9.910;2023-04-28T06:41:11;100664.42;;;10.29;57.90
55733;BME280;41637;52.364;9.910;2023-04-28T06:43:38;100661.84;;;10.36;57.81
55733;BME280;41637;52.364;9.910;2023-04-28T06:46:04;100660.84;;;10.45;57.04
55733;BME280;41637;52.364;9.910;2023-04-28T06:48:31;100664.44;;;10.57;57.09
55733;BME280;41637;52.364;9.910;2023-04-28T06:50:58;100668.47;;;10.68;56.45
55733;BME280;41637;52.364;9.910;2023-04-28T06:53:25;100668.70;;;10.78;56.37
55733;BME280;41637;52.364;9.910;2023-04-28T06:55:52;100667.36;;;10.90;55.94
55733;BME280;41637;52.364;9.910;2023-04-28T06:58:19;100663.55;;;11.06;56.05
55733;BME280;41637;52.364;9.910;2023-04-28T07:00:46;100664.52;;;11.23;55.41
55733;BME280;41637;52.364;9.910;2023-04-28T07:03:13;100666.94;;;11.36;54.40
55733;BME280;41637;52.364;9.910;2023-04-28T07:05:40;100663.25;;;11.50;53.93
55733;BME280;41637;52.364;9.910;2023-04-28T07:08:06;100658.18;;;11.60;53.65
55733;BME280;41637;52.364;9.910;2023-04-28T07:10:33;100656.16;;;11.66;53.36
55733;BME280;41637;52.364;9.910;2023-04-28T07:13:00;100652.48;;;11.72;52.89
55733;BME280;41637;52.364;9.910;2023-04-28T07:15:27;100650.58;;;11.78;52.64
55733;BME280;41637;52.364;9.910;2023-04-28T07:17:54;100646.65;;;11.93;52.33
55733;BME280;41637;52.364;9.910;2023-04-28T07:20:20;100645.68;;;12.05;51.76
55733;BME280;41637;52.364;9.910;2023-04-28T07:22:47;100642.77;;;12.14;51.44
55733;BME280;41637;52.364;9.910;2023-04-28T07:25:14;100635.96;;;12.20;51.29
55733;BME280;41637;52.364;9.910;2023-04-28T07:27:40;100633.63;;;12.27;50.71
55733;BME280;41637;52.364;9.910;2023-04-28T07:30:07;100638.59;;;12.36;50.31
55733;BME280;41637;52.364;9.910;2023-04-28T07:32:51;100634.04;;;12.36;49.43
55733;BME280;41637;52.364;9.910;2023-04-28T07:35:18;100636.79;;;12.36;49.72
55733;BME280;41637;52.364;9.910;2023-04-28T07:37:45;100636.23;;;12.37;49.41
55733;BME280;41637;52.364;9.910;2023-04-28T07:40:11;100642.08;;;12.41;49.76
55733;BME280;41637;52.364;9.910;2023-04-28T07:42:38;100639.95;;;12.45;49.27
55733;BME280;41637;52.364;9.910;2023-04-28T07:45:05;100639.45;;;12.48;49.54
55733;BME280;41637;52.364;9.910;2023-04-28T07:47:32;100635.92;;;12.50;49.64
55733;BME280;41637;52.364;9.910;2023-04-28T07:50:00;100634.70;;;12.57;49.83
55733;BME280;41637;52.364;9.910;2023-04-28T07:52:32;100632.66;;;12.66;49.40
55733;BME280;41637;52.364;9.910;2023-04-28T07:54:59;100633.14;;;12.76;49.49
55733;BME280;41637;52.364;9.910;2023-04-28T07:57:25;100630.23;;;12.89;49.05
55733;BME280;41637;52.364;9.910;2023-04-28T07:59:52;100623.77;;;12.96;48.05
55733;BME280;41637;52.364;9.910;2023-04-28T08:02:19;100622.90;;;13.02;48.00
55733;BME280;41637;52.364;9.910;2023-04-28T08:04:46;100621.04;;;13.09;48.19
55733;BME280;41637;52.364;9.910;2023-04-28T08:07:13;100616.91;;;13.22;48.09
55733;BME280;41637;52.364;9.910;2023-04-28T08:09:40;100613.98;;;13.38;48.41
55733;BME280;41637;52.364;9.910;2023-04-28T08:12:09;100612.90;;;13.43;47.22
55733;BME280;41637;52.364;9.910;2023-04-28T08:14:36;100616.55;;;13.56;47.99
55733;BME280;41637;52.364;9.910;2023-04-28T08:17:03;100612.14;;;13.69;47.44
55733;BME280;41637;52.364;9.910;2023-04-28T08:19:29;100612.02;;;13.83;47.72
55733;BME280;41637;52.364;9.910;2023-04-28T08:21:56;100609.39;;;13.97;48.04
55733;BME280;41637;52.364;9.910;2023-04-28T08:24:23;100605.22;;;14.09;48.04
55733;BME280;41637;52.364;9.910;2023-04-28T08:26:50;100606.27;;;14.17;47.82
55733;BME280;41637;52.364;9.910;2023-04-28T08:29:17;100605.27;;;14.26;47.80
55733;BME280;41637;52.364;9.910;2023-04-28T08:31:44;100604.80;;;14.31;47.73
55733;BME280;41637;52.364;9.910;2023-04-28T08:34:11;100604.71;;;14.33;47.68
55733;BME280;41637;52.364;9.910;2023-04-28T08:36:41;100606.73;;;14.41;48.01
55733;BME280;41637;52.364;9.910;2023-04-28T08:39:08;100605.16;;;14.53;48.34
55733;BME280;41637;52.364;9.910;2023-04-28T08:41:38;100602.24;;;14.60;47.72
55733;BME280;41637;52.364;9.910;2023-04-28T08:44:07;100603.52;;;14.68;47.87
55733;BME280;41637;52.364;9.910;2023-04-28T08:46:34;100602.83;;;14.79;47.81
55733;BME280;41637;52.364;9.910;2023-04-28T08:49:03;100597.13;;;14.81;46.96
55733;BME280;41637;52.364;9.910;2023-04-28T08:51:37;100596.84;;;14.82;46.68
55733;BME280;41637;52.364;9.910;2023-04-28T08:54:10;100589.15;;;14.85;46.71
55733;BME280;41637;52.364;9.910;2023-04-28T08:56:52;100593.30;;;14.94;46.75
55733;BME280;41637;52.364;9.910;2023-04-28T08:59:19;100585.98;;;15.04;46.94
55733;BME280;41637;52.364;9.910;2023-04-28T09:01:50;100591.55;;;15.16;46.64
55733;BME280;41637;52.364;9.910;2023-04-28T09:04:17;100586.71;;;15.32;46.36
55733;BME280;41637;52.364;9.910;2023-04-28T09:06:45;100585.36;;;15.50;46.26
55733;BME280;41637;52.364;9.910;2023-04-28T09:09:22;100580.64;;;15.61;45.57
55733;BME280;41637;52.364;9.910;2023-04-28T09:11:57;100580.58;;;15.72;45.48
55733;BME280;41637;52.364;9.910;2023-04-28T09:14:26;100576.14;;;15.75;44.95
55733;BME280;41637;52.364;9.910;2023-04-28T09:16:53;100574.13;;;15.68;44.23
55733;BME280;41637;52.364;9.910;2023-04-28T09:19:21;100569.38;;;15.60;44.23
55733;BME280;41637;52.364;9.910;2023-04-28T09:21:55;100567.36;;;15.57;44.80
55733;BME280;41637;52.364;9.910;2023-04-28T09:24:30;100564.91;;;15.54;44.57
55733;BME280;41637;52.364;9.910;2023-04-28T09:27:02;100558.14;;;15.60;45.26
55733;BME280;41637;52.364;9.910;2023-04-28T09:29:30;100553.66;;;15.77;45.40
55733;BME280;41637;52.364;9.910;2023-04-28T09:32:17;100554.21;;;15.91;45.02
55733;BME280;41637;52.364;9.910;2023-04-28T09:34:50;100554.37;;;15.92;44.46
55733;BME280;41637;52.364;9.910;2023-04-28T09:37:18;100554.36;;;15.86;44.71
55733;BME280;41637;52.364;9.910;2023-04-28T09:39:47;100550.37;;;15.77;44.81
55733;BME280;41637;52.364;9.910;2023-04-28T09:42:43;100541.45;;;15.74;45.00
55733;BME280;41637;52.364;9.910;2023-04-28T09:45:14;100542.52;;;15.73;45.29
55733;BME280;41637;52.364;9.910;2023-04-28T09:47:43;100537.74;;;15.78;45.40
55733;BME280;41637;52.364;9.910;2023-04-28T09:50:11;100533.83;;;15.88;45.28
55733;BME280;41637;52.364;9.910;2023-04-28T09:52:41;100532.48;;;15.98;44.52
55733;BME280;41637;52.364;9.910;2023-04-28T09:55:10;100534.21;;;15.99;44.40
55733;BME280;41637;52.364;9.910;2023-04-28T09:57:38;100534.17;;;15.98;44.61
55733;BME280;41637;52.364;9.910;2023-04-28T10:00:06;100533.30;;;15.91;44.58
55733;BME280;41637;52.364;9.910;2023-04-28T10:02:36;100534.09;;;15.90;44.63
55733;BME280;41637;52.364;9.910;2023-04-28T10:05:06;100532.21;;;15.79;44.63
55733;BME280;41637;52.364;9.910;2023-04-28T10:07:36;100532.65;;;15.81;45.31
55733;BME280;41637;52.364;9.910;2023-04-28T10:10:03;100531.77;;;15.87;46.25
55733;BME280;41637;52.364;9.910;2023-04-28T10:12:31;100531.83;;;15.91;46.10
55733;BME280;41637;52.364;9.910;2023-04-28T10:14:58;100537.99;;;15.93;46.14
55733;BME280;41637;52.364;9.910;2023-04-28T10:17:25;100538.55;;;15.95;46.06
55733;BME280;41637;52.364;9.910;2023-04-28T10:19:55;100539.20;;;15.94;46.06
55733;BME280;41637;52.364;9.910;2023-04-28T10:25:25;100537.37;;;15.92;46.56
55733;BME280;41637;52.364;9.910;2023-04-28T10:27:52;100534.98;;;15.87;46.34
55733;BME280;41637;52.364;9.910;2023-04-28T10:30:24;100527.39;;;15.83;45.91
55733;BME280;41637;52.364;9.910;2023-04-28T10:38:06;100523.76;;;15.91;46.50
55733;BME280;41637;52.364;9.910;2023-04-28T10:40:44;100518.98;;;16.00;46.31
55733;BME280;41637;52.364;9.910;2023-04-28T10:46:01;100514.24;;;16.18;46.98
55733;BME280;41637;52.364;9.910;2023-04-28T10:56:08;100509.42;;;16.56;45.86
55733;BME280;41637;52.364;9.910;2023-04-28T10:58:36;100512.34;;;16.63;45.69
55733;BME280;41637;52.364;9.910;2023-04-28T11:04:04;100506.52;;;16.84;45.77
55733;BME280;41637;52.364;9.910;2023-04-28T11:06:44;100502.32;;;16.98;45.66
55733;BME280;41637;52.364;9.910;2023-04-28T11:11:38;100503.45;;;17.16;45.92
55733;BME280;41637;52.364;9.910;2023-04-28T11:17:00;100498.98;;;17.17;45.23
55733;BME280;41637;52.364;9.910;2023-04-28T11:19:33;100498.39;;;17.15;45.72
55733;BME280;41637;52.364;9.910;2023-04-28T11:22:01;100498.86;;;17.12;46.39
55733;BME280;41637;52.364;9.910;2023-04-28T11:24:29;100496.71;;;17.05;46.53
55733;BME280;41637;52.364;9.910;2023-04-28T11:26:57;100490.31;;;16.94;47.05
55733;BME280;41637;52.364;9.910;2023-04-28T11:29:39;100487.63;;;16.86;47.24
55733;BME280;41637;52.364;9.910;2023-04-28T11:32:08;100485.27;;;16.88;47.54
55733;BME280;41637;52.364;9.910;2023-04-28T11:34:35;100478.98;;;16.90;47.14
55733;BME280;41637;52.364;9.910;2023-04-28T11:37:02;100480.80;;;16.94;46.99
55733;BME280;41637;52.364;9.910;2023-04-28T11:39:33;100479.44;;;16.94;46.94
55733;BME280;41637;52.364;9.910;2023-04-28T11:42:09;100483.29;;;16.88;47.07
55733;BME280;41637;52.364;9.910;2023-04-28T11:44:36;100479.83;;;16.83;47.06
55733;BME280;41637;52.364;9.910;2023-04-28T11:47:04;100477.82;;;16.79;47.12
55733;BME280;41637;52.364;9.910;2023-04-28T11:49:44;100477.73;;;16.77;46.66
55733;BME280;41637;52.364;9.910;2023-04-28T11:52:11;100473.83;;;16.70;47.55
55733;BME280;41637;52.364;9.910;2023-04-28T11:54:39;100471.50;;;16.64;48.10
55733;BME280;41637;52.364;9.910;2023-04-28T11:57:19;100470.86;;;16.57;48.36
55733;BME280;41637;52.364;9.910;2023-04-28T11:59:47;100468.50;;;16.45;47.51
55733;BME280;41637;52.364;9.910;2023-04-28T12:21:04;100469.65;;;16.24;48.52
55733;BME280;41637;52.364;9.910;2023-04-28T12:23:32;100470.84;;;16.20;48.26
55733;BME280;41637;52.364;9.910;2023-04-28T12:26:00;100469.47;;;16.21;49.06
55733;BME280;41637;52.364;9.910;2023-04-28T12:28:40;100469.09;;;16.22;50.17
55733;BME280;41637;52.364;9.910;2023-04-28T12:31:09;100469.01;;;16.18;51.16
55733;BME280;41637;52.364;9.910;2023-04-28T12:33:36;100469.45;;;16.12;51.17
55733;BME280;41637;52.364;9.910;2023-04-28T12:36:04;100462.54;;;16.07;52.18
55733;BME280;41637;52.364;9.910;2023-04-28T12:38:34;100461.11;;;15.98;52.60
55733;BME280;41637;52.364;9.910;2023-04-28T12:41:00;100455.67;;;15.88;52.34
55733;BME280;41637;52.364;9.910;2023-04-28T12:43:27;100453.36;;;15.93;52.69
55733;BME280;41637;52.364;9.910;2023-04-28T12:45:54;100452.79;;;16.06;52.88
55733;BME280;41637;52.364;9.910;2023-04-28T12:48:22;100450.47;;;16.14;53.00
55733;BME280;41637;52.364;9.910;2023-04-28T12:50:52;100448.55;;;16.22;53.78
55733;BME280;41637;52.364;9.910;2023-04-28T12:53:19;100444.58;;;16.30;54.25
55733;BME280;41637;52.364;9.910;2023-04-28T12:55:45;100441.20;;;16.46;54.50
55733;BME280;41637;52.364;9.910;2023-04-28T12:58:12;100440.71;;;16.61;54.50
55733;BME280;41637;52.364;9.910;2023-04-28T13:00:38;100439.42;;;16.66;54.90
55733;BME280;41637;52.364;9.910;2023-04-28T13:03:07;100442.79;;;16.62;55.04
55733;BME280;41637;52.364;9.910;2023-04-28T13:05:34;100435.97;;;16.57;54.79
55733;BME280;41637;52.364;9.910;2023-04-28T13:08:01;100436.31;;;16.42;54.44
55733;BME280;41637;52.364;9.910;2023-04-28T13:10:27;100432.27;;;16.24;54.31
55733;BME280;41637;52.364;9.910;2023-04-28T13:12:55;100428.80;;;16.09;55.15
55733;BME280;41637;52.364;9.910;2023-04-28T13:15:21;100426.47;;;15.90;54.72
55733;BME280;41637;52.364;9.910;2023-04-28T13:17:48;100420.90;;;15.70;55.42
55733;BME280;41637;52.364;9.910;2023-04-28T13:20:15;100422.91;;;15.56;55.62
55733;BME280;41637;52.364;9.910;2023-04-28T13:22:42;100429.52;;;15.41;56.04
55733;BME280;41637;52.364;9.910;2023-04-28T13:25:09;100429.30;;;15.28;56.40
55733;BME280;41637;52.364;9.910;2023-04-28T13:27:35;100426.81;;;15.14;56.59
55733;BME280;41637;52.364;9.910;2023-04-28T13:30:04;100420.63;;;15.00;57.13
55733;BME280;41637;52.364;9.910;2023-04-28T13:32:30;100415.71;;;14.92;57.74
55733;BME280;41637;52.364;9.910;2023-04-28T13:34:57;100413.50;;;14.86;58.82
55733;BME280;41637;52.364;9.910;2023-04-28T13:37:24;100409.54;;;14.83;58.94
55733;BME280;41637;52.364;9.910;2023-04-28T13:39:51;100401.67;;;14.86;59.38
55733;BME280;41637;52.364;9.910;2023-04-28T13:42:18;100402.43;;;14.93;59.94
55733;BME280;41637;52.364;9.910;2023-04-28T13:44:45;100401.71;;;14.99;59.67